C83

Byron Airport

Byron, California, USA
METAR KC83 120055Z AUTO 00000KT 10SM CLR 08/05 A3018 RMK AO2
Observed Flight Rules
Dec-12 @ 00:55 UTC (16 minutes ago) Visual Flight Rules
Visibility Clouds
10 miles
  • Clear skies
Temperatures Readings
Current 8°C / 46°F
Dewpoint 5°C / 41°F
Humidity 82%
Altimeter 30.18" Hg
Pressure 1022 hPa
Elevation 24
METAR KC83 120055Z AUTO 00000KT 10SM CLR 08/05 A3018 RMK AO2
Observed Flight Rules
Dec-12 @ 00:55 UTC
(16 minutes ago)
VFR
Clouds
  • Clear skies
Temperature Dewpoint
8°C / 46°F 5°C / 41°F
Humidity Altimeter Pressure
82% 30.18" Hg 1022 hPa